createdAt,value
2017-06-06T00:00:13.262Z,99.99
2017-06-06T00:01:22.520Z,99.99
2017-06-06T00:02:31.480Z,99.99
2017-06-06T00:03:40.439Z,99.99
2017-06-06T00:04:49.395Z,99.99
2017-06-06T00:05:58.374Z,99.99
2017-06-06T00:07:07.582Z,99.99
2017-06-06T00:08:16.541Z,99.99
2017-06-06T00:09:25.511Z,99.99
2017-06-06T00:10:34.475Z,99.99
2017-06-06T00:11:43.439Z,99.99
2017-06-06T00:12:52.644Z,99.99
2017-06-06T00:14:01.606Z,99.99
2017-06-06T00:15:10.556Z,99.99
2017-06-06T00:16:19.517Z,99.99
2017-06-06T00:17:28.480Z,99.99
2017-06-06T00:18:38.058Z,99.99
2017-06-06T00:19:47.014Z,99.99
2017-06-06T00:20:56.301Z,99.99
2017-06-06T00:22:05.255Z,99.99
2017-06-06T00:23:14.210Z,99.99
2017-06-06T00:24:23.504Z,99.99
2017-06-06T00:25:32.458Z,99.99
2017-06-06T00:26:41.411Z,99.99
2017-06-06T00:27:50.369Z,99.99
2017-06-06T00:28:59.336Z,99.99
2017-06-06T00:30:08.544Z,99.99
2017-06-06T00:31:17.513Z,99.99
2017-06-06T00:32:26.467Z,99.99
2017-06-06T00:33:35.427Z,99.99
2017-06-06T00:34:44.386Z,99.99
2017-06-06T00:35:53.594Z,99.99
2017-06-06T00:37:02.553Z,99.99
2017-06-06T00:38:11.512Z,99.99
2017-06-06T00:39:20.499Z,99.99
2017-06-06T00:40:29.455Z,99.99
2017-06-06T00:41:38.664Z,99.99
2017-06-06T00:42:47.651Z,99.99
2017-06-06T00:43:56.610Z,99.99
2017-06-06T00:45:05.568Z,99.99
2017-06-06T00:46:14.523Z,99.99
2017-06-06T00:47:23.732Z,99.99
2017-06-06T00:48:32.690Z,99.99
2017-06-06T00:49:41.641Z,99.99
2017-06-06T00:50:50.594Z,99.99
2017-06-06T00:51:59.581Z,99.99
2017-06-06T00:53:08.784Z,99.99
2017-06-06T00:54:17.748Z,99.99
2017-06-06T00:55:26.706Z,99.99
2017-06-06T00:56:35.666Z,99.99
2017-06-06T00:57:44.620Z,99.99
2017-06-06T00:58:53.919Z,99.99
2017-06-06T01:00:02.879Z,99.99
2017-06-06T01:01:11.837Z,99.99
2017-06-06T01:02:20.795Z,99.99
2017-06-06T01:03:29.754Z,99.99
2017-06-06T01:04:38.962Z,99.99
2017-06-06T01:05:47.924Z,99.99
2017-06-06T01:06:56.908Z,99.99
2017-06-06T01:08:05.862Z,99.99
2017-06-06T01:09:14.822Z,99.99
2017-06-06T01:10:24.082Z,99.99
2017-06-06T01:11:33.039Z,99.99
2017-06-06T01:12:41.995Z,99.99
2017-06-06T01:13:50.952Z,99.99
2017-06-06T01:14:59.906Z,99.99
2017-06-06T01:16:09.199Z,99.99
2017-06-06T01:17:18.158Z,99.99
2017-06-06T01:18:27.116Z,99.99
2017-06-06T01:19:36.069Z,99.99
2017-06-06T01:20:45.025Z,99.99
2017-06-06T01:21:54.231Z,99.99
2017-06-06T01:23:03.187Z,99.99
2017-06-06T01:24:12.141Z,99.99
2017-06-06T01:25:21.095Z,99.99
2017-06-06T01:26:30.058Z,99.99
2017-06-06T01:27:39.269Z,99.99
2017-06-06T01:28:48.226Z,99.99
2017-06-06T01:29:57.184Z,99.99
2017-06-06T01:31:06.139Z,99.99
2017-06-06T01:32:15.520Z,99.99
2017-06-06T01:33:24.731Z,99.99
2017-06-06T01:34:33.684Z,99.99
2017-06-06T01:35:42.641Z,99.99
2017-06-06T01:36:51.595Z,99.99
2017-06-06T01:38:00.550Z,99.99
2017-06-06T01:39:09.760Z,99.99
2017-06-06T01:40:18.718Z,99.99
2017-06-06T01:41:27.676Z,99.99
2017-06-06T01:42:36.630Z,99.99
2017-06-06T01:43:45.583Z,99.99
2017-06-06T01:44:54.542Z,99.99
2017-06-06T01:46:03.497Z,99.99
2017-06-06T01:47:12.453Z,99.99
2017-06-06T01:48:21.505Z,99.99
2017-06-06T01:49:30.800Z,99.99
2017-06-06T01:50:39.812Z,99.99
2017-06-06T01:51:48.769Z,99.99
2017-06-06T01:52:57.726Z,99.99
2017-06-06T01:54:06.688Z,99.99
2017-06-06T01:55:15.649Z,99.99
2017-06-06T01:56:24.614Z,99.99
2017-06-06T01:57:33.570Z,99.99
2017-06-06T01:58:42.524Z,99.99
2017-06-06T01:59:51.482Z,99.99
2017-06-06T02:01:00.443Z,99.99
2017-06-06T02:02:09.455Z,99.99
2017-06-06T02:03:18.413Z,99.99
2017-06-06T02:04:27.368Z,99.99
2017-06-06T02:05:36.321Z,99.99
2017-06-06T02:06:45.363Z,99.99
2017-06-06T02:07:54.325Z,99.99
2017-06-06T02:09:03.284Z,99.99
2017-06-06T02:10:12.238Z,99.99
2017-06-06T02:11:21.191Z,99.99
2017-06-06T02:12:30.237Z,99.99
2017-06-06T02:13:39.444Z,99.99
2017-06-06T02:14:48.400Z,99.99
2017-06-06T02:15:57.354Z,99.99
2017-06-06T02:17:06.314Z,99.99
2017-06-06T02:18:15.357Z,99.99
2017-06-06T02:19:24.613Z,99.99
2017-06-06T02:20:33.570Z,99.99
2017-06-06T02:21:42.536Z,99.99
2017-06-06T02:22:51.492Z,99.99
2017-06-06T02:24:00.453Z,99.99
2017-06-06T02:25:09.657Z,99.99
2017-06-06T02:26:18.612Z,99.99
2017-06-06T02:27:27.566Z,99.99
2017-06-06T02:28:36.561Z,99.99
2017-06-06T02:29:45.521Z,99.99
2017-06-06T02:30:54.784Z,99.99
2017-06-06T02:32:03.740Z,99.99
2017-06-06T02:33:12.698Z,99.99
2017-06-06T02:34:21.652Z,99.99
2017-06-06T02:35:30.698Z,99.99
2017-06-06T02:36:39.905Z,99.99
2017-06-06T02:37:48.863Z,99.99
2017-06-06T02:38:57.819Z,99.99
2017-06-06T02:40:06.812Z,99.99
2017-06-06T02:41:15.775Z,99.99
2017-06-06T02:42:25.073Z,99.99
2017-06-06T02:43:34.033Z,99.99
2017-06-06T02:44:42.987Z,99.99
2017-06-06T02:45:51.944Z,99.99
2017-06-06T02:47:00.911Z,99.99
2017-06-06T02:48:10.120Z,99.99
2017-06-06T02:49:19.074Z,99.99
2017-06-06T02:50:28.026Z,99.99
2017-06-06T02:51:37.069Z,99.99
2017-06-06T02:52:46.027Z,99.99
2017-06-06T02:53:55.235Z,99.99
2017-06-06T02:55:04.195Z,99.99
2017-06-06T02:56:13.148Z,99.99
2017-06-06T02:57:22.115Z,99.99
2017-06-06T02:58:31.112Z,99.99
2017-06-06T02:59:40.370Z,99.99
2017-06-06T03:00:49.328Z,99.99
2017-06-06T03:01:58.280Z,99.99
2017-06-06T03:03:07.243Z,99.99
2017-06-06T03:04:16.198Z,99.99
2017-06-06T03:05:25.407Z,99.99
2017-06-06T03:06:34.365Z,99.99
2017-06-06T03:07:43.326Z,99.99
2017-06-06T03:08:52.287Z,99.99
2017-06-06T03:10:01.262Z,99.99
2017-06-06T03:11:10.471Z,99.99
2017-06-06T03:12:19.427Z,99.99
2017-06-06T03:13:28.417Z,99.99
2017-06-06T03:14:37.375Z,99.99
2017-06-06T03:15:46.336Z,99.99
2017-06-06T03:16:55.629Z,99.99
2017-06-06T03:18:04.587Z,99.99
2017-06-06T03:19:13.542Z,99.99
2017-06-06T03:20:22.499Z,99.99
2017-06-06T03:21:31.544Z,99.99
2017-06-06T03:22:40.745Z,99.99
2017-06-06T03:23:49.706Z,99.99
2017-06-06T03:24:58.661Z,99.99
2017-06-06T03:26:07.618Z,99.99
2017-06-06T03:27:16.580Z,99.99
2017-06-06T03:28:25.878Z,99.99
2017-06-06T03:29:34.835Z,99.99
2017-06-06T03:30:43.793Z,99.99
2017-06-06T03:31:52.745Z,99.99
2017-06-06T03:33:01.704Z,99.99
2017-06-06T03:34:10.914Z,99.99
2017-06-06T03:35:20.215Z,99.99
2017-06-06T03:36:29.169Z,99.99
2017-06-06T03:37:38.124Z,99.99
2017-06-06T03:38:47.083Z,99.99
2017-06-06T03:39:56.288Z,99.99
2017-06-06T03:41:05.242Z,99.99
2017-06-06T03:42:14.205Z,99.99
2017-06-06T03:43:23.167Z,99.99
2017-06-06T03:44:32.117Z,99.99
2017-06-06T03:45:41.372Z,99.99
2017-06-06T03:46:50.334Z,99.99
2017-06-06T03:47:59.287Z,99.99
2017-06-06T03:49:08.246Z,99.99
2017-06-06T03:50:17.205Z,99.99
2017-06-06T03:51:26.411Z,99.99
2017-06-06T03:52:35.366Z,99.99
2017-06-06T03:53:44.326Z,99.99
2017-06-06T03:54:53.279Z,99.99
2017-06-06T03:56:02.240Z,99.99
2017-06-06T03:57:11.506Z,99.99
2017-06-06T03:58:20.470Z,99.99
2017-06-06T03:59:29.423Z,99.99
2017-06-06T04:00:38.409Z,99.99
2017-06-06T04:01:47.366Z,99.99
2017-06-06T04:02:56.569Z,99.99
2017-06-06T04:04:05.529Z,99.99
2017-06-06T04:05:14.492Z,99.99
2017-06-06T04:06:23.452Z,99.99
2017-06-06T04:07:32.408Z,99.99
2017-06-06T04:08:41.619Z,99.99
2017-06-06T04:09:50.615Z,99.99
2017-06-06T04:10:59.568Z,99.99
2017-06-06T04:12:08.525Z,99.99
2017-06-06T04:13:17.478Z,99.99
2017-06-06T04:14:26.683Z,99.99
2017-06-06T04:15:35.639Z,99.99
2017-06-06T04:16:44.599Z,99.99
2017-06-06T04:17:53.553Z,99.99
2017-06-06T04:19:02.507Z,99.99
2017-06-06T04:20:11.767Z,99.99
2017-06-06T04:21:20.725Z,99.99
2017-06-06T04:22:30.010Z,99.99
2017-06-06T04:23:38.975Z,99.99
2017-06-06T04:24:47.933Z,99.99
2017-06-06T04:25:57.144Z,99.99
2017-06-06T04:27:06.102Z,99.99
2017-06-06T04:28:15.067Z,99.99
2017-06-06T04:29:24.067Z,99.99
2017-06-06T04:30:33.025Z,99.99
2017-06-06T04:31:42.313Z,99.99
2017-06-06T04:32:51.300Z,99.99
2017-06-06T04:34:00.284Z,99.99
2017-06-06T04:35:09.241Z,99.99
2017-06-06T04:36:18.198Z,99.99
2017-06-06T04:37:27.456Z,99.99
2017-06-06T04:38:36.409Z,99.99
2017-06-06T04:39:45.368Z,99.99
2017-06-06T04:40:54.328Z,99.99
2017-06-06T04:42:03.284Z,99.99
2017-06-06T04:43:12.541Z,99.99
2017-06-06T04:44:21.499Z,99.99
2017-06-06T04:45:30.461Z,99.99
2017-06-06T04:46:39.414Z,99.99
2017-06-06T04:47:48.375Z,99.99
2017-06-06T04:48:57.582Z,99.99
2017-06-06T04:50:06.542Z,99.99
2017-06-06T04:51:15.499Z,99.99
2017-06-06T04:52:24.456Z,99.99
2017-06-06T04:53:33.413Z,99.99
2017-06-06T04:54:42.668Z,99.99
2017-06-06T04:55:51.956Z,99.99
2017-06-06T04:57:00.913Z,99.99
2017-06-06T04:58:09.903Z,99.99
2017-06-06T04:59:18.863Z,99.99
2017-06-06T05:00:28.120Z,99.99
2017-06-06T05:01:37.077Z,99.99
2017-06-06T05:02:46.034Z,99.99
2017-06-06T05:03:54.990Z,99.99
2017-06-06T05:05:03.948Z,99.99
2017-06-06T05:06:13.158Z,99.99
2017-06-06T05:07:22.115Z,99.99
2017-06-06T05:08:31.077Z,99.99
2017-06-06T05:09:40.042Z,99.99
2017-06-06T05:10:48.996Z,99.99
2017-06-06T05:11:58.289Z,99.99
2017-06-06T05:13:07.244Z,99.99
2017-06-06T05:14:16.208Z,99.99
2017-06-06T05:15:25.164Z,99.99
2017-06-06T05:16:34.209Z,99.99
2017-06-06T05:17:43.417Z,99.99
2017-06-06T05:18:52.381Z,99.99
2017-06-06T05:20:01.426Z,99.99
2017-06-06T05:21:10.474Z,99.99
2017-06-06T05:22:19.521Z,99.99
2017-06-06T05:23:28.732Z,99.99
2017-06-06T05:24:37.693Z,99.99
2017-06-06T05:25:46.649Z,99.99
2017-06-06T05:26:55.608Z,99.99
2017-06-06T05:28:04.564Z,99.99
2017-06-06T05:29:13.778Z,99.99
2017-06-06T05:30:22.743Z,99.99
2017-06-06T05:31:31.702Z,99.99
2017-06-06T05:32:40.984Z,99.99
2017-06-06T05:33:49.936Z,99.99
2017-06-06T05:34:59.226Z,99.99
2017-06-06T05:36:08.272Z,99.99
2017-06-06T05:37:17.553Z,99.99
2017-06-06T05:38:26.509Z,99.99
2017-06-06T05:39:35.467Z,99.99
2017-06-06T05:40:44.677Z,99.99
2017-06-06T05:41:53.637Z,99.99
2017-06-06T05:43:02.591Z,99.99
2017-06-06T05:44:11.548Z,99.99
2017-06-06T05:45:20.507Z,99.99
2017-06-06T05:46:29.719Z,99.99
2017-06-06T05:47:38.678Z,99.99
2017-06-06T05:48:47.634Z,99.99
2017-06-06T05:49:56.673Z,99.99
2017-06-06T05:51:05.716Z,99.99
2017-06-06T05:52:14.975Z,99.99
2017-06-06T05:53:23.926Z,99.99
2017-06-06T05:54:32.889Z,99.99
2017-06-06T05:55:41.847Z,99.99
2017-06-06T05:56:50.804Z,99.99
2017-06-06T05:58:00.060Z,99.99
2017-06-06T05:59:09.015Z,99.99
2017-06-06T06:00:17.973Z,99.99
2017-06-06T06:01:26.933Z,99.99
2017-06-06T06:02:35.893Z,99.99
2017-06-06T06:03:44.883Z,99.99
2017-06-06T06:04:53.846Z,99.99
2017-06-06T06:06:02.811Z,99.99
2017-06-06T06:07:11.775Z,99.99
2017-06-06T06:08:20.733Z,99.99
2017-06-06T06:09:29.689Z,99.99
2017-06-06T06:10:38.647Z,99.99
2017-06-06T06:11:47.605Z,99.99
2017-06-06T06:12:56.816Z,99.99
2017-06-06T06:14:05.769Z,99.99
2017-06-06T06:15:14.726Z,99.99
2017-06-06T06:16:23.684Z,99.99
2017-06-06T06:17:32.735Z,99.99
2017-06-06T06:18:41.995Z,99.99
2017-06-06T06:19:50.959Z,99.99
2017-06-06T06:20:59.917Z,99.99
2017-06-06T06:22:08.880Z,99.99
2017-06-06T06:23:18.215Z,99.99
2017-06-06T06:24:27.460Z,99.99
2017-06-06T06:25:36.422Z,99.99
2017-06-06T06:26:45.465Z,99.99
2017-06-06T06:27:54.419Z,99.99
2017-06-06T06:29:03.376Z,99.99
2017-06-06T06:30:12.581Z,99.99
2017-06-06T06:31:21.542Z,99.99
2017-06-06T06:32:30.499Z,99.99
2017-06-06T06:33:39.457Z,99.99
2017-06-06T06:34:48.735Z,99.99
2017-06-06T06:35:57.948Z,99.99
2017-06-06T06:37:06.910Z,99.99
2017-06-06T06:38:15.871Z,99.99
2017-06-06T06:39:24.834Z,99.99
2017-06-06T06:40:33.793Z,99.99
2017-06-06T06:41:42.998Z,99.99
2017-06-06T06:42:51.953Z,99.99
2017-06-06T06:44:00.915Z,99.99
2017-06-06T06:45:09.873Z,99.99
2017-06-06T06:46:18.836Z,99.99
2017-06-06T06:47:28.104Z,99.99
2017-06-06T06:48:37.061Z,99.99
2017-06-06T06:49:46.020Z,99.99
2017-06-06T06:50:54.978Z,99.99
2017-06-06T06:52:03.939Z,99.99
2017-06-06T06:53:12.897Z,99.99
2017-06-06T06:54:21.851Z,99.99
2017-06-06T06:55:30.808Z,99.99
2017-06-06T06:56:39.768Z,99.99
2017-06-06T06:57:49.031Z,99.99
2017-06-06T06:58:57.985Z,99.99
2017-06-06T07:00:06.948Z,99.99
2017-06-06T07:01:15.912Z,99.99
2017-06-06T07:02:24.875Z,99.99
2017-06-06T07:03:34.133Z,99.99
2017-06-06T07:04:43.093Z,99.99
2017-06-06T07:05:52.059Z,99.99
2017-06-06T07:07:01.024Z,99.99
2017-06-06T07:08:09.988Z,99.99
2017-06-06T07:09:19.245Z,99.99
2017-06-06T07:10:28.210Z,99.99
2017-06-06T07:11:37.173Z,99.99
2017-06-06T07:12:46.134Z,99.99
2017-06-06T07:13:55.097Z,99.99
2017-06-06T07:15:04.301Z,99.99
2017-06-06T07:16:13.259Z,99.99
2017-06-06T07:17:22.217Z,99.99
2017-06-06T07:18:31.177Z,99.99
2017-06-06T07:19:40.137Z,99.99
2017-06-06T07:20:49.344Z,99.99
2017-06-06T07:21:58.394Z,99.99
2017-06-06T07:23:07.352Z,99.99
2017-06-06T07:24:16.311Z,97.96
2017-06-06T07:25:25.271Z,99.99
2017-06-06T07:26:34.484Z,99.99
2017-06-06T07:27:43.447Z,99.99
2017-06-06T07:28:52.405Z,99.99
2017-06-06T07:30:01.368Z,99.99
2017-06-06T07:31:10.361Z,99.99
2017-06-06T07:32:19.625Z,99.99
2017-06-06T07:33:28.584Z,99.99
2017-06-06T07:34:37.549Z,99.99
2017-06-06T07:35:46.533Z,98.68
2017-06-06T07:36:55.490Z,99.99
2017-06-06T07:38:05.024Z,99.99
2017-06-06T07:39:14.013Z,99.99
2017-06-06T07:40:22.974Z,99.99
2017-06-06T07:41:31.947Z,99.99
2017-06-06T07:42:40.906Z,99.99
2017-06-06T07:43:50.114Z,99.99
2017-06-06T07:44:59.099Z,99.99
2017-06-06T07:46:08.151Z,99.99
2017-06-06T07:47:17.110Z,99.99
2017-06-06T07:48:26.156Z,99.99
2017-06-06T07:49:35.487Z,99.99
2017-06-06T07:50:44.446Z,99.99
2017-06-06T07:51:53.401Z,99.99
2017-06-06T07:53:02.365Z,99.99
2017-06-06T07:54:11.328Z,99.99
2017-06-06T07:55:20.598Z,99.99
2017-06-06T07:56:29.553Z,99.99
2017-06-06T07:57:38.516Z,99.99
2017-06-06T07:58:47.476Z,99.99
2017-06-06T07:59:56.436Z,99.99
2017-06-06T08:01:05.734Z,99.99
2017-06-06T08:02:14.697Z,99.99
2017-06-06T08:03:23.666Z,99.99
2017-06-06T08:04:32.632Z,99.99
2017-06-06T08:05:41.593Z,99.99
2017-06-06T08:06:50.550Z,99.99
2017-06-06T08:07:59.509Z,99.99
2017-06-06T08:09:08.481Z,99.99
2017-06-06T08:10:17.446Z,98.68
2017-06-06T08:11:26.652Z,99.99
2017-06-06T08:12:35.620Z,99.99
2017-06-06T08:13:44.577Z,99.99
2017-06-06T08:14:53.538Z,99.99
2017-06-06T08:16:02.590Z,99.99
2017-06-06T08:17:11.799Z,99.99
2017-06-06T08:18:20.757Z,99.99
2017-06-06T08:19:29.719Z,99.99
2017-06-06T08:20:38.685Z,99.99
2017-06-06T08:21:47.645Z,99.99
2017-06-06T08:22:56.911Z,99.99
2017-06-06T08:24:05.904Z,99.99
2017-06-06T08:25:14.864Z,99.99
2017-06-06T08:26:23.829Z,99.99
2017-06-06T08:27:32.786Z,99.99
2017-06-06T08:28:42.002Z,99.99
2017-06-06T08:29:50.960Z,99.99
2017-06-06T08:31:00.014Z,99.99
2017-06-06T08:32:08.974Z,99.99
2017-06-06T08:33:17.936Z,99.99
2017-06-06T08:34:27.145Z,99.99
2017-06-06T08:35:36.115Z,99.99
2017-06-06T08:36:45.070Z,99.99
2017-06-06T08:37:54.041Z,99.99
2017-06-06T08:39:03.002Z,99.99
2017-06-06T08:40:12.347Z,99.99
2017-06-06T08:41:21.307Z,99.99
2017-06-06T08:42:30.263Z,99.99
2017-06-06T08:43:39.222Z,99.99
2017-06-06T08:44:48.189Z,99.99
2017-06-06T08:45:57.398Z,99.99
2017-06-06T08:47:06.355Z,99.99
2017-06-06T08:48:15.315Z,99.99
2017-06-06T08:49:24.267Z,99.99
2017-06-06T08:50:33.558Z,99.99
2017-06-06T08:51:42.820Z,99.99
2017-06-06T08:52:51.788Z,99.99
2017-06-06T08:54:00.752Z,99.99
2017-06-06T08:55:09.713Z,99.99
2017-06-06T08:56:18.709Z,99.99
2017-06-06T08:57:27.969Z,99.99
2017-06-06T08:58:36.925Z,99.54
2017-06-06T08:59:45.887Z,99.44
2017-06-06T09:00:54.846Z,99.99
2017-06-06T09:02:03.807Z,99.99
2017-06-06T09:03:13.015Z,99.99
2017-06-06T09:04:21.974Z,99.99
2017-06-06T09:05:31.021Z,99.99
2017-06-06T09:06:39.980Z,99.54
2017-06-06T09:07:48.938Z,99.99
2017-06-06T09:08:58.149Z,99.99
2017-06-06T09:10:07.108Z,99.99
2017-06-06T09:11:16.070Z,98
2017-06-06T09:12:25.027Z,99.99
2017-06-06T09:13:33.987Z,99.98
2017-06-06T09:14:43.198Z,99.99
2017-06-06T09:15:52.157Z,99.99
2017-06-06T09:17:01.115Z,99.99
2017-06-06T09:18:10.077Z,98.77
2017-06-06T09:19:19.370Z,99.99
2017-06-06T09:20:28.582Z,99.99
2017-06-06T09:21:37.542Z,99.99
2017-06-06T09:22:46.506Z,99.99
2017-06-06T09:23:55.472Z,99.99
2017-06-06T09:25:04.432Z,99.99
2017-06-06T09:26:13.640Z,99.99
2017-06-06T09:27:22.603Z,99.99
2017-06-06T09:28:31.569Z,99.99
2017-06-06T09:29:40.529Z,99.99
2017-06-06T09:30:49.493Z,99.99
2017-06-06T09:31:58.452Z,99.59
2017-06-06T09:33:07.412Z,99.99
2017-06-06T09:34:16.372Z,99.99
2017-06-06T09:35:25.337Z,99.99
2017-06-06T09:36:34.550Z,99.99
2017-06-06T09:37:43.514Z,99.99
2017-06-06T09:38:52.474Z,99.99
2017-06-06T09:40:01.455Z,99.99
2017-06-06T09:41:10.415Z,99.84
2017-06-06T09:42:19.627Z,98.39
2017-06-06T09:43:28.582Z,95.89
2017-06-06T09:44:37.550Z,99.84
2017-06-06T09:45:46.510Z,99.99
2017-06-06T09:46:55.470Z,98.72
2017-06-06T09:48:04.688Z,99.99
2017-06-06T09:49:13.647Z,99.99
2017-06-06T09:50:22.615Z,98.05
2017-06-06T09:51:31.575Z,99.99
2017-06-06T09:52:40.537Z,96.89
2017-06-06T09:53:49.885Z,99.99
2017-06-06T09:54:58.844Z,99.99
2017-06-06T09:56:07.808Z,99.99
2017-06-06T09:57:17.102Z,96.8
2017-06-06T09:58:26.066Z,99.99
2017-06-06T09:59:35.301Z,99.99
2017-06-06T10:00:44.302Z,99.5
2017-06-06T10:01:53.265Z,99.99
2017-06-06T10:03:02.221Z,98
2017-06-06T10:04:11.182Z,99.99
2017-06-06T10:05:20.388Z,99.84
2017-06-06T10:06:29.358Z,98.1
2017-06-06T10:07:38.312Z,98.87
2017-06-06T10:08:47.273Z,99.07
2017-06-06T10:09:56.231Z,98.87
2017-06-06T10:11:05.489Z,98.77
2017-06-06T10:12:14.450Z,97.91
2017-06-06T10:13:23.414Z,98.1
2017-06-06T10:14:32.379Z,98.1
2017-06-06T10:15:41.339Z,96.27
2017-06-06T10:16:50.551Z,97.52
2017-06-06T10:17:59.514Z,95.89
2017-06-06T10:19:08.476Z,97.24
2017-06-06T10:20:17.434Z,94.15
2017-06-06T10:21:26.395Z,98.2
2017-06-06T10:22:35.610Z,98.68
2017-06-06T10:23:44.609Z,98.25
2017-06-06T10:24:53.577Z,88.95
2017-06-06T10:26:02.539Z,94.54
2017-06-06T10:27:11.501Z,97.47
2017-06-06T10:28:20.716Z,98.49
2017-06-06T10:29:29.681Z,99.5
2017-06-06T10:30:38.639Z,93.13
2017-06-06T10:31:47.597Z,95.36
2017-06-06T10:32:56.555Z,94.2
2017-06-06T10:34:05.817Z,97.19
2017-06-06T10:35:14.778Z,98.54
2017-06-06T10:36:23.826Z,95.74
2017-06-06T10:37:32.788Z,95.93
2017-06-06T10:38:41.754Z,97.67
2017-06-06T10:39:51.013Z,95.26
2017-06-06T10:40:59.973Z,98.1
2017-06-06T10:42:08.933Z,98.82
2017-06-06T10:43:17.893Z,98.1
2017-06-06T10:44:26.851Z,99.99
2017-06-06T10:45:36.060Z,98
2017-06-06T10:46:45.029Z,97.04
2017-06-06T10:47:53.991Z,99.93
2017-06-06T10:49:03.275Z,99.84
2017-06-06T10:50:12.236Z,99.98
2017-06-06T10:51:21.449Z,91.49
2017-06-06T10:52:30.442Z,84.01
2017-06-06T10:53:39.491Z,90.77
2017-06-06T10:54:48.451Z,95.88
2017-06-06T10:55:57.503Z,96.46
2017-06-06T10:57:06.712Z,97.81
2017-06-06T10:58:15.673Z,98.97
2017-06-06T10:59:24.638Z,96.22
2017-06-06T11:00:33.601Z,99.02
2017-06-06T11:01:42.570Z,97.77
2017-06-06T11:02:51.781Z,96.51
2017-06-06T11:04:00.745Z,97.28
2017-06-06T11:05:09.705Z,92.46
2017-06-06T11:06:18.669Z,93.42
2017-06-06T11:07:27.635Z,93.76
2017-06-06T11:08:36.996Z,95.06
2017-06-06T11:09:45.962Z,96.03
2017-06-06T11:10:54.926Z,96.89
2017-06-06T11:12:03.920Z,94.34
2017-06-06T11:13:12.967Z,96.46
2017-06-06T11:14:22.317Z,96.56
2017-06-06T11:15:31.369Z,96.56
2017-06-06T11:16:40.329Z,97.72
2017-06-06T11:17:49.285Z,97.09
2017-06-06T11:18:58.244Z,92.83
2017-06-06T11:20:07.454Z,93.71
2017-06-06T11:21:16.414Z,95.54
2017-06-06T11:22:25.384Z,91.09
2017-06-06T11:23:34.350Z,89.41
2017-06-06T11:24:43.316Z,88.06
2017-06-06T11:25:52.903Z,90.57
2017-06-06T11:27:01.865Z,93.27
2017-06-06T11:28:10.827Z,94.62
2017-06-06T11:29:19.801Z,93.95
2017-06-06T11:30:28.759Z,93.95
2017-06-06T11:31:37.972Z,90.33
2017-06-06T11:32:46.939Z,85.78
2017-06-06T11:33:55.904Z,82.31
2017-06-06T11:35:04.868Z,79.27
2017-06-06T11:36:13.822Z,86.42
2017-06-06T11:37:23.034Z,89.51
2017-06-06T11:38:31.995Z,90.95
2017-06-06T11:39:40.959Z,89.79
2017-06-06T11:40:49.919Z,92.31
2017-06-06T11:41:58.968Z,92.25
2017-06-06T11:43:08.233Z,89.07
2017-06-06T11:44:17.191Z,89.17
2017-06-06T11:45:26.162Z,81.15
2017-06-06T11:46:35.124Z,87.13
2017-06-06T11:47:44.088Z,79.8
2017-06-06T11:48:53.299Z,79.5
2017-06-06T11:50:02.261Z,85.88
2017-06-06T11:51:11.222Z,82.5
2017-06-06T11:52:20.185Z,85.4
2017-06-06T11:53:29.199Z,89.17
2017-06-06T11:54:38.467Z,90.52
2017-06-06T11:55:47.434Z,91
2017-06-06T11:56:56.396Z,90.42
2017-06-06T11:58:05.450Z,89.45
2017-06-06T11:59:14.410Z,88.01
2017-06-06T12:00:23.622Z,88.68
2017-06-06T12:01:32.588Z,89.26
2017-06-06T12:02:41.553Z,87.52
2017-06-06T12:03:50.519Z,85.49
2017-06-06T12:04:59.482Z,85.4
2017-06-06T12:06:08.694Z,83.47
2017-06-06T12:07:17.657Z,83.47
2017-06-06T12:08:26.657Z,85.3
2017-06-06T12:09:35.616Z,80.47
2017-06-06T12:10:44.576Z,84.24
2017-06-06T12:11:53.787Z,82.4
2017-06-06T12:13:02.747Z,81.15
2017-06-06T12:14:11.709Z,82.6
2017-06-06T12:15:20.674Z,85.49
2017-06-06T12:16:29.640Z,82.02
2017-06-06T12:17:38.855Z,77.09
2017-06-06T12:18:47.815Z,81.73
2017-06-06T12:19:56.863Z,82.6
2017-06-06T12:21:05.823Z,75.64
2017-06-06T12:22:15.109Z,78.44
2017-06-06T12:23:24.323Z,76.8
2017-06-06T12:24:33.287Z,78.44
2017-06-06T12:25:42.250Z,78.54
2017-06-06T12:26:51.215Z,79.89
2017-06-06T12:28:00.173Z,80.86
2017-06-06T12:29:09.390Z,81.24
2017-06-06T12:30:18.350Z,82.69
2017-06-06T12:31:27.637Z,81.15
2017-06-06T12:32:36.598Z,78.25
2017-06-06T12:33:45.558Z,79.41
2017-06-06T12:34:54.772Z,76.42
2017-06-06T12:36:04.059Z,71.78
2017-06-06T12:37:13.113Z,75.84
2017-06-06T12:38:22.072Z,77
2017-06-06T12:39:31.033Z,76.74
2017-06-06T12:40:40.243Z,75.2
2017-06-06T12:41:49.207Z,77.13
2017-06-06T12:42:58.263Z,77.51
2017-06-06T12:44:07.223Z,77.9
2017-06-06T12:45:16.191Z,77.84
2017-06-06T12:46:25.413Z,77.75
2017-06-06T12:47:34.460Z,77.84
2017-06-06T12:48:43.421Z,75.81
2017-06-06T12:49:52.386Z,72.62
2017-06-06T12:51:01.343Z,71.46
2017-06-06T12:52:10.567Z,73.97
2017-06-06T12:53:19.525Z,74.07
2017-06-06T12:54:28.484Z,74.55
2017-06-06T12:55:37.446Z,75.23
2017-06-06T12:56:46.415Z,75.13
2017-06-06T12:57:55.631Z,75.71
2017-06-06T12:59:04.596Z,74.94
2017-06-06T13:00:13.561Z,75.91
2017-06-06T13:01:22.657Z,74.42
2017-06-06T13:02:31.622Z,75
2017-06-06T13:03:40.831Z,73.46
2017-06-06T13:04:50.119Z,73.84
2017-06-06T13:05:59.085Z,70.56
2017-06-06T13:07:08.547Z,71.62
2017-06-06T13:08:17.520Z,73.36
2017-06-06T13:09:26.730Z,73.55
2017-06-06T13:10:35.696Z,72.58
2017-06-06T13:11:44.657Z,72.78
2017-06-06T13:12:53.620Z,72.2
2017-06-06T13:14:02.584Z,72.14
2017-06-06T13:15:12.509Z,73.59
2017-06-06T13:16:21.479Z,73.68
2017-06-06T13:17:30.440Z,74.27
2017-06-06T13:18:39.439Z,75.33
2017-06-06T13:19:48.415Z,74.85
2017-06-06T13:20:58.005Z,74.65
2017-06-06T13:22:06.967Z,74.94
2017-06-06T13:23:15.939Z,74.88
2017-06-06T13:24:24.905Z,74.98
2017-06-06T13:25:33.874Z,74.88
2017-06-06T13:26:43.087Z,74.88
2017-06-06T13:27:52.046Z,75.07
2017-06-06T13:29:01.006Z,74.49
2017-06-06T13:30:09.971Z,72.21
2017-06-06T13:31:18.938Z,69.59
2017-06-06T13:32:28.153Z,71.62
2017-06-06T13:33:37.113Z,70.37
2017-06-06T13:34:46.077Z,72.5
2017-06-06T13:35:55.045Z,70.18
2017-06-06T13:37:04.334Z,69.56
2017-06-06T13:38:13.601Z,71.3
2017-06-06T13:39:22.657Z,72.46
2017-06-06T13:40:31.627Z,72.27
2017-06-06T13:41:40.592Z,70.14
2017-06-06T13:42:49.558Z,70.24
2017-06-06T13:43:58.827Z,70.24
2017-06-06T13:45:08.115Z,70.43
2017-06-06T13:46:17.082Z,70.43
2017-06-06T13:47:26.040Z,69.75
2017-06-06T13:48:35.087Z,70.53
2017-06-06T13:49:44.357Z,69.27
2017-06-06T13:50:53.323Z,66.17
2017-06-06T13:52:02.284Z,67.33
2017-06-06T13:53:11.247Z,68.11
2017-06-06T13:54:20.296Z,68.59
2017-06-06T13:55:29.514Z,67.98
2017-06-06T13:56:38.474Z,67.43
2017-06-06T13:57:47.436Z,67.63
2017-06-06T13:58:56.397Z,67.63
2017-06-06T14:00:05.360Z,66.66
2017-06-06T14:01:14.709Z,65.5
2017-06-06T14:02:23.671Z,65.88
2017-06-06T14:03:32.634Z,65.88
2017-06-06T14:04:41.603Z,66.27
2017-06-06T14:05:50.563Z,65.88
2017-06-06T14:06:59.775Z,65.88
2017-06-06T14:08:08.737Z,65.5
2017-06-06T14:09:17.701Z,65.3
2017-06-06T14:10:26.662Z,64.34
2017-06-06T14:11:35.626Z,61.92
2017-06-06T14:12:44.835Z,60.63
2017-06-06T14:13:53.882Z,60.14
2017-06-06T14:15:02.850Z,59.56
2017-06-06T14:16:11.815Z,58.98
2017-06-06T14:17:20.775Z,59.08
2017-06-06T14:18:30.034Z,58.89
2017-06-06T14:19:38.994Z,58.89
2017-06-06T14:20:47.956Z,58.6
2017-06-06T14:21:56.920Z,58.4
2017-06-06T14:23:05.880Z,57.82
2017-06-06T14:24:15.228Z,57.54
2017-06-06T14:25:24.271Z,57.92
2017-06-06T14:26:33.233Z,57.34
2017-06-06T14:27:42.192Z,56.86
2017-06-06T14:28:51.155Z,56.6
2017-06-06T14:30:00.362Z,56.02
2017-06-06T14:31:09.332Z,55.92
2017-06-06T14:32:18.296Z,55.24
2017-06-06T14:33:27.260Z,54.75
2017-06-06T14:34:36.224Z,54.37
2017-06-06T14:35:45.440Z,54.37
2017-06-06T14:36:54.409Z,54.66
2017-06-06T14:38:03.370Z,54.17
2017-06-06T14:39:12.333Z,54.37
2017-06-06T14:40:21.300Z,53.91
2017-06-06T14:41:30.567Z,54.01
2017-06-06T14:42:39.533Z,54.01
2017-06-06T14:43:48.495Z,54.01
2017-06-06T14:44:57.457Z,52.75
2017-06-06T14:46:06.423Z,52.46
2017-06-06T14:47:15.685Z,51.56
2017-06-06T14:48:24.647Z,51.5
2017-06-06T14:49:33.611Z,51.3
2017-06-06T14:50:42.575Z,50.72